createdAt,value
2023-03-20T00:11:31.280Z,100236.77
2023-03-20T00:26:36.778Z,100234.17
2023-03-20T00:41:39.339Z,100241.67
2023-03-20T00:56:46.222Z,100232.23
2023-03-20T01:11:48.882Z,100230.88
2023-03-20T01:26:52.697Z,100221.39
2023-03-20T01:41:55.480Z,100225.08
2023-03-20T01:57:09.121Z,100233.20
2023-03-20T02:12:12.105Z,100236.80
2023-03-20T02:27:20.910Z,100234.41
2023-03-20T02:42:58.295Z,100232.98
2023-03-20T02:58:34.308Z,100234.05
2023-03-20T03:13:48.943Z,100231.25
2023-03-20T03:28:58.620Z,100233.45
2023-03-20T03:44:11.346Z,100225.88
2023-03-20T03:59:24.264Z,100228.48
2023-03-20T04:14:27.627Z,100221.45
2023-03-20T04:29:30.263Z,100230.23
2023-03-20T04:44:32.886Z,100232.74
2023-03-20T04:59:35.477Z,100235.92
2023-03-20T05:14:38.145Z,100241.45
2023-03-20T05:29:41.080Z,100250.63
2023-03-20T05:44:43.744Z,100248.54
2023-03-20T05:59:46.396Z,100260.37
2023-03-20T06:14:49.066Z,100270.24
2023-03-20T06:29:51.670Z,100276.41
2023-03-20T06:44:54.319Z,100284.61
2023-03-20T06:59:57.324Z,100296.55
2023-03-20T07:14:59.939Z,100296.54
2023-03-20T07:30:03.897Z,100309.77
2023-03-20T07:45:07.880Z,100316.36
2023-03-20T08:00:11.588Z,100317.11
2023-03-20T08:15:14.611Z,100318.98
2023-03-20T08:30:17.327Z,100328.40
2023-03-20T08:45:20.636Z,100333.27
2023-03-20T09:00:24.321Z,100345.77
2023-03-20T09:15:28.420Z,100347.44
2023-03-20T09:30:31.450Z,100352.92
2023-03-20T09:45:52.672Z,100352.17
2023-03-20T10:00:58.574Z,100343.99
2023-03-20T10:16:36.018Z,100342.82
2023-03-20T10:31:52.059Z,100336.92
2023-03-20T10:46:58.396Z,100323.09
2023-03-20T11:02:01.111Z,100305.22
2023-03-20T11:17:04.574Z,100299.23
2023-03-20T11:32:31.706Z,100297.00
2023-03-20T11:47:36.151Z,100291.39
2023-03-20T12:02:41.792Z,100277.27
2023-03-20T12:17:54.084Z,100267.83
2023-03-20T12:33:04.395Z,100255.48
2023-03-20T12:48:09.884Z,100243.08
2023-03-20T13:03:43.913Z,100232.95
2023-03-20T13:19:18.767Z,100220.73
2023-03-20T13:34:46.376Z,100223.30
2023-03-20T13:50:20.908Z,100243.36
2023-03-20T14:05:26.629Z,100191.60
2023-03-20T14:20:34.270Z,100196.13
2023-03-20T14:35:39.081Z,100182.50
2023-03-20T14:51:01.639Z,100186.28
2023-03-20T15:06:06.148Z,100217.37
2023-03-20T15:21:13.756Z,100218.39
2023-03-20T15:36:22.854Z,100206.98
2023-03-20T15:51:27.538Z,100214.61
2023-03-20T16:06:30.285Z,100242.36
2023-03-20T16:21:39.883Z,100258.10
2023-03-20T16:36:42.544Z,100259.51
2023-03-20T16:51:45.203Z,100263.11
2023-03-20T17:06:55.264Z,100279.88
2023-03-20T17:21:59.690Z,100292.24
2023-03-20T17:37:03.447Z,100295.05
2023-03-20T17:52:10.528Z,100290.86
2023-03-20T18:07:13.621Z,100298.77
2023-03-20T18:22:16.442Z,100315.58
2023-03-20T18:37:21.722Z,100317.67
2023-03-20T18:52:24.846Z,100315.10
2023-03-20T19:07:27.793Z,100306.27
2023-03-20T19:22:30.637Z,100309.88
2023-03-20T19:37:33.225Z,100299.87
2023-03-20T19:52:36.864Z,100313.41
2023-03-20T20:08:16.606Z,100316.48
2023-03-20T20:23:07.801Z,100320.27
2023-03-20T20:38:37.201Z,100322.34
2023-03-20T20:53:33.262Z,100323.79
2023-03-20T21:08:38.459Z,100319.88
2023-03-20T21:23:41.839Z,100316.89
2023-03-20T22:10:06.115Z,100313.36
2023-03-20T22:25:46.589Z,100307.79
2023-03-20T22:41:07.044Z,100304.50
2023-03-20T22:55:40.726Z,100302.88
2023-03-20T23:10:47.193Z,100295.37
2023-03-20T23:25:50.056Z,100297.45
2023-03-20T23:40:52.921Z,100288.16
2023-03-20T23:55:57.049Z,100283.00
